Time;durP1;ratioP1;P1;durP2;ratioP2;P2;SDS_P1;SDS_P2;PMS_P1;PMS_P2;Temp;Humidity;BMP_temperature;BMP_pressure;BME280_temperature;BME280_humidity;BME280_pressure;Samples;Min_cycle;Max_cycle;Signal;HPM_P1;HPM_P2
2022/01/19 00:00:47;;;;;;;0.30;0.30;;;;;;;;;;5026687;28;20215;-61
2022/01/19 00:03:15;;;;;;;0.20;0.20;;;;;;;;;;5025912;28;20631;-62
2022/01/19 00:05:42;;;;;;;0.40;0.40;;;;;;;;;;5025257;28;20292;-61
2022/01/19 00:08:16;;;;;;;0.20;0.20;;;;;;;;;;5026332;28;20274;-61
2022/01/19 00:10:43;;;;;;;0.40;0.40;;;;;;;;;;5025115;28;20205;-61
2022/01/19 00:13:10;;;;;;;0.20;0.20;;;;;;;;;;5026060;28;20278;-62
2022/01/19 00:15:37;;;;;;;1.20;0.30;;;;;;;;;;5026332;28;20225;-61
2022/01/19 00:18:04;;;;;;;0.30;0.30;;;;;;;;;;5025991;28;20654;-60
2022/01/19 00:20:32;;;;;;;0.47;0.47;;;;;;;;;;5026622;28;20208;-60
2022/01/19 00:23:00;;;;;;;0.20;0.20;;;;;;;;;;5027720;28;20205;-61
2022/01/19 00:25:28;;;;;;;0.10;0.10;;;;;;;;;;5024999;28;20212;-60
2022/01/19 00:27:55;;;;;;;0.47;0.47;;;;;;;;;;5027877;28;20270;-60
2022/01/19 00:30:22;;;;;;;0.30;0.30;;;;;;;;;;5027292;28;20204;-60
2022/01/19 00:32:49;;;;;;;1.10;0.60;;;;;;;;;;5027295;28;20890;-60
2022/01/19 00:35:16;;;;;;;0.40;0.40;;;;;;;;;;5027340;28;20726;-60
2022/01/19 00:37:44;;;;;;;0.40;0.40;;;;;;;;;;5030813;28;20203;-60
2022/01/19 00:40:13;;;;;;;0.33;0.33;;;;;;;;;;5030897;28;20662;-60
2022/01/19 00:42:41;;;;;;;0.50;0.50;;;;;;;;;;5031280;28;20939;-60
2022/01/19 00:45:09;;;;;;;0.33;0.33;;;;;;;;;;5030109;28;20738;-60
2022/01/19 00:47:36;;;;;;;0.60;0.60;;;;;;;;;;5031001;28;20208;-60
2022/01/19 00:50:05;;;;;;;0.83;0.40;;;;;;;;;;5030449;28;20228;-60
2022/01/19 00:52:32;;;;;;;1.03;0.60;;;;;;;;;;5029191;28;20211;-60
2022/01/19 00:54:59;;;;;;;0.47;0.47;;;;;;;;;;5030628;28;20236;-60
2022/01/19 00:57:26;;;;;;;0.47;0.47;;;;;;;;;;5030905;28;20262;-60
2022/01/19 00:59:54;;;;;;;0.30;0.30;;;;;;;;;;5030470;28;20216;-61
2022/01/19 01:02:21;;;;;;;0.40;0.40;;;;;;;;;;5030943;28;20212;-61
2022/01/19 01:04:48;;;;;;;0.30;0.30;;;;;;;;;;5030493;28;20204;-61
2022/01/19 01:07:15;;;;;;;0.40;0.40;;;;;;;;;;5030919;28;20258;-61
2022/01/19 01:09:42;;;;;;;2.73;0.60;;;;;;;;;;5030248;28;20219;-61
2022/01/19 01:12:12;;;;;;;0.47;0.47;;;;;;;;;;5030965;28;20620;-61
2022/01/19 01:20:23;;;;;;;0.60;0.60;;;;;;;;;;4989378;28;20212;-61
2022/01/19 01:22:50;;;;;;;1.07;0.63;;;;;;;;;;5021210;28;20209;-61
2022/01/19 01:25:17;;;;;;;0.83;0.50;;;;;;;;;;5031204;28;20635;-61
2022/01/19 01:27:44;;;;;;;0.70;0.70;;;;;;;;;;5031326;28;20220;-61
2022/01/19 01:30:11;;;;;;;0.60;0.60;;;;;;;;;;5030002;28;20223;-61
2022/01/19 01:32:40;;;;;;;0.60;0.60;;;;;;;;;;5031092;28;20204;-61
2022/01/19 01:35:07;;;;;;;0.60;0.60;;;;;;;;;;5030855;28;20235;-61
2022/01/19 01:37:34;;;;;;;0.53;0.53;;;;;;;;;;5031080;28;20247;-60
2022/01/19 01:40:02;;;;;;;0.57;0.57;;;;;;;;;;5031162;28;20216;-60
2022/01/19 01:42:29;;;;;;;0.50;0.47;;;;;;;;;;5031339;28;20216;-61
2022/01/19 01:44:57;;;;;;;0.40;0.40;;;;;;;;;;5031052;28;20204;-60
2022/01/19 01:47:25;;;;;;;0.37;0.37;;;;;;;;;;5030143;28;20197;-60
2022/01/19 01:55:32;;;;;;;0.60;0.60;;;;;;;;;;5006492;28;20247;-61
2022/01/19 01:57:59;;;;;;;0.40;0.40;;;;;;;;;;5030818;28;20220;-61
2022/01/19 02:00:27;;;;;;;0.40;0.40;;;;;;;;;;5031160;28;20299;-61
2022/01/19 02:02:55;;;;;;;0.60;0.60;;;;;;;;;;5030249;28;20209;-61
2022/01/19 02:05:26;;;;;;;0.50;0.40;;;;;;;;;;5030232;28;20666;-61
2022/01/19 02:08:04;;;;;;;0.60;0.60;;;;;;;;;;5030001;28;20748;-60
2022/01/19 02:10:37;;;;;;;0.50;0.50;;;;;;;;;;5030269;28;20315;-61
2022/01/19 02:16:11;;;;;;;0.60;0.60;;;;;;;;;;5030013;28;20234;-61
2022/01/19 02:21:39;;;;;;;0.70;0.70;;;;;;;;;;5029961;28;20677;-60
2022/01/19 02:24:08;;;;;;;0.67;0.60;;;;;;;;;;5029463;28;20742;-60
2022/01/19 02:26:50;;;;;;;0.30;0.30;;;;;;;;;;5030037;28;20268;-62
2022/01/19 02:29:38;;;;;;;0.60;0.60;;;;;;;;;;5025635;28;20212;-60
2022/01/19 02:40:32;;;;;;;0.40;0.40;;;;;;;;;;5005278;28;20215;-60
2022/01/19 02:43:07;;;;;;;0.40;0.40;;;;;;;;;;5030100;28;20299;-60
2022/01/19 02:51:05;;;;;;;0.60;0.60;;;;;;;;;;5029745;28;20354;-60
2022/01/19 02:53:35;;;;;;;0.60;0.60;;;;;;;;;;5029734;28;20212;-60
2022/01/19 02:56:07;;;;;;;0.40;0.40;;;;;;;;;;5030182;28;20317;-61
2022/01/19 02:58:39;;;;;;;0.93;0.60;;;;;;;;;;5029441;28;20258;-60
2022/01/19 03:09:21;;;;;;;0.73;0.73;;;;;;;;;;5029805;28;20199;-61
2022/01/19 03:11:48;;;;;;;0.50;0.50;;;;;;;;;;5029030;28;20209;-60
2022/01/19 03:14:17;;;;;;;0.30;0.30;;;;;;;;;;5029877;28;20212;-60
2022/01/19 03:16:44;;;;;;;0.50;0.50;;;;;;;;;;5029165;28;20208;-60
2022/01/19 03:19:12;;;;;;;0.40;0.40;;;;;;;;;;5029946;28;20620;-60
2022/01/19 03:21:39;;;;;;;0.30;0.30;;;;;;;;;;5029427;28;20216;-60
2022/01/19 03:24:07;;;;;;;2.67;0.40;;;;;;;;;;5029257;28;20626;-60
2022/01/19 03:26:35;;;;;;;0.30;0.30;;;;;;;;;;5029825;28;20211;-61
2022/01/19 03:29:02;;;;;;;0.30;0.30;;;;;;;;;;5028865;28;20639;-61
2022/01/19 03:31:29;;;;;;;0.30;0.30;;;;;;;;;;5029307;28;20203;-61
2022/01/19 03:33:56;;;;;;;0.40;0.40;;;;;;;;;;5028799;28;20243;-60
2022/01/19 03:36:23;;;;;;;2.30;0.57;;;;;;;;;;5029481;28;20228;-61
2022/01/19 03:38:50;;;;;;;0.40;0.40;;;;;;;;;;5028832;28;20215;-61
2022/01/19 03:41:17;;;;;;;0.70;0.43;;;;;;;;;;5029600;28;20588;-61
2022/01/19 03:43:46;;;;;;;0.70;0.50;;;;;;;;;;5029088;28;20250;-61
2022/01/19 03:46:15;;;;;;;0.83;0.57;;;;;;;;;;5029665;28;20208;-61
2022/01/19 03:48:53;;;;;;;1.47;0.50;;;;;;;;;;5028990;28;20669;-61
2022/01/19 03:51:20;;;;;;;0.50;0.47;;;;;;;;;;5029536;28;20337;-60
2022/01/19 03:53:47;;;;;;;0.47;0.47;;;;;;;;;;5029019;28;20220;-61
2022/01/19 03:56:14;;;;;;;0.40;0.40;;;;;;;;;;5028411;28;20224;-61
2022/01/19 03:58:41;;;;;;;0.63;0.63;;;;;;;;;;5029386;28;20208;-60
2022/01/19 04:01:10;;;;;;;0.40;0.40;;;;;;;;;;5028352;28;20278;-60
2022/01/19 04:04:03;;;;;;;0.50;0.50;;;;;;;;;;5029172;28;20204;-61
2022/01/19 04:06:51;;;;;;;0.67;0.67;;;;;;;;;;5027941;28;20204;-61
2022/01/19 04:09:17;;;;;;;0.47;0.47;;;;;;;;;;5029190;28;20282;-61
2022/01/19 04:11:44;;;;;;;0.50;0.50;;;;;;;;;;5030716;28;20204;-61
2022/01/19 04:14:25;;;;;;;0.60;0.60;;;;;;;;;;5032868;28;20670;-61
2022/01/19 04:16:54;;;;;;;0.50;0.50;;;;;;;;;;5032620;28;20903;-61
2022/01/19 04:19:28;;;;;;;0.93;0.50;;;;;;;;;;5022450;28;20204;-61
2022/01/19 04:21:55;;;;;;;1.33;0.50;;;;;;;;;;5032657;28;20212;-61
2022/01/19 04:24:23;;;;;;;0.50;0.50;;;;;;;;;;5032611;28;20208;-61
2022/01/19 04:29:41;;;;;;;0.50;0.50;;;;;;;;;;5030698;28;20207;-61
2022/01/19 04:32:13;;;;;;;0.50;0.50;;;;;;;;;;5032558;28;20217;-60
2022/01/19 04:34:42;;;;;;;1.37;0.60;;;;;;;;;;5031105;28;20781;-61
2022/01/19 04:45:51;;;;;;;0.93;0.50;;;;;;;;;;5032468;28;20235;-61
2022/01/19 05:02:21;;;;;;;0.77;0.77;;;;;;;;;;5031246;28;20257;-61
2022/01/19 05:04:54;;;;;;;0.53;0.47;;;;;;;;;;5032006;28;20293;-60
2022/01/19 05:07:26;;;;;;;0.30;0.30;;;;;;;;;;5031644;28;20369;-61
2022/01/19 05:13:23;;;;;;;0.40;0.40;;;;;;;;;;5031957;28;20212;-60
2022/01/19 05:15:32;;;;;;;1.60;0.50;;;;;;;;;;5024038;28;20224;-60
2022/01/19 05:17:59;;;;;;;0.50;0.50;;;;;;;;;;5022255;28;20270;-60
2022/01/19 05:20:28;;;;;;;0.50;0.50;;;;;;;;;;5031315;28;20566;-61
2022/01/19 05:22:55;;;;;;;0.40;0.40;;;;;;;;;;5031380;28;20675;-60
2022/01/19 05:25:22;;;;;;;1.13;0.83;;;;;;;;;;5031326;28;20201;-60
2022/01/19 05:27:49;;;;;;;0.70;0.70;;;;;;;;;;5031096;28;20224;-60
2022/01/19 05:30:17;;;;;;;1.33;1.23;;;;;;;;;;5031344;28;20210;-61
2022/01/19 05:32:44;;;;;;;1.40;1.30;;;;;;;;;;5031396;28;20299;-61
2022/01/19 05:35:11;;;;;;;0.90;0.90;;;;;;;;;;5030989;28;20231;-61
2022/01/19 05:37:40;;;;;;;0.87;0.87;;;;;;;;;;5031345;28;20212;-61
2022/01/19 05:40:08;;;;;;;0.80;0.80;;;;;;;;;;5030947;28;20204;-61
2022/01/19 05:42:35;;;;;;;1.00;0.77;;;;;;;;;;5031353;28;20196;-61
2022/01/19 05:45:02;;;;;;;0.47;0.47;;;;;;;;;;5031147;28;20227;-61
2022/01/19 05:47:29;;;;;;;0.57;0.57;;;;;;;;;;5030884;28;20690;-61
2022/01/19 05:49:56;;;;;;;1.60;0.70;;;;;;;;;;5031563;28;20225;-60
2022/01/19 05:52:23;;;;;;;0.50;0.50;;;;;;;;;;5030874;28;20663;-61
2022/01/19 05:54:52;;;;;;;0.40;0.40;;;;;;;;;;5031184;28;20262;-61
2022/01/19 05:57:19;;;;;;;0.77;0.67;;;;;;;;;;5030962;28;20232;-61
2022/01/19 05:59:46;;;;;;;0.63;0.63;;;;;;;;;;5015452;28;20601;-61
2022/01/19 06:02:13;;;;;;;1.27;1.00;;;;;;;;;;5028853;28;20289;-61
2022/01/19 06:04:40;;;;;;;4.67;0.90;;;;;;;;;;5017135;28;20255;-61
2022/01/19 06:07:07;;;;;;;1.53;1.20;;;;;;;;;;5028464;28;20216;-61
2022/01/19 06:09:36;;;;;;;2.87;1.00;;;;;;;;;;5029156;28;20299;-61
2022/01/19 06:12:07;;;;;;;1.50;1.27;;;;;;;;;;5028863;28;20894;-60
2022/01/19 06:14:35;;;;;;;1.90;1.50;;;;;;;;;;5029877;28;20794;-61
2022/01/19 06:17:02;;;;;;;3.83;1.73;;;;;;;;;;5029366;28;20224;-61
2022/01/19 06:19:29;;;;;;;1.30;1.00;;;;;;;;;;5030167;28;20212;-61
2022/01/19 06:21:56;;;;;;;4.97;1.97;;;;;;;;;;5029614;28;20212;-60
2022/01/19 06:24:23;;;;;;;1.33;1.20;;;;;;;;;;5029667;28;20204;-60
2022/01/19 06:26:51;;;;;;;1.70;1.60;;;;;;;;;;5028724;28;20208;-60
2022/01/19 06:29:19;;;;;;;1.73;1.50;;;;;;;;;;5029268;28;20209;-61
2022/01/19 06:31:46;;;;;;;3.23;1.57;;;;;;;;;;5028240;28;20204;-61
2022/01/19 06:34:13;;;;;;;1.97;1.87;;;;;;;;;;5027552;28;20298;-61
2022/01/19 06:36:40;;;;;;;3.63;1.60;;;;;;;;;;5026445;28;20228;-60
2022/01/19 06:39:07;;;;;;;2.53;1.40;;;;;;;;;;5028531;28;20204;-59
2022/01/19 06:41:34;;;;;;;2.30;1.80;;;;;;;;;;5030187;28;20707;-60
2022/01/19 06:44:01;;;;;;;1.83;1.30;;;;;;;;;;5029877;28;20254;-60
2022/01/19 06:46:30;;;;;;;5.10;2.10;;;;;;;;;;5029930;28;20281;-60
2022/01/19 06:48:57;;;;;;;5.47;1.67;;;;;;;;;;5030238;28;20647;-60
2022/01/19 06:51:24;;;;;;;1.33;1.10;;;;;;;;;;5030472;28;20254;-60
2022/01/19 06:53:52;;;;;;;2.10;1.50;;;;;;;;;;5030301;28;20217;-60
2022/01/19 06:56:19;;;;;;;2.20;1.30;;;;;;;;;;5029014;28;20714;-60
2022/01/19 06:58:49;;;;;;;2.97;1.83;;;;;;;;;;5030260;28;20208;-60
2022/01/19 07:01:16;;;;;;;3.83;1.50;;;;;;;;;;5027815;28;20216;-60
2022/01/19 07:03:45;;;;;;;1.20;1.10;;;;;;;;;;5029878;28;20276;-60
2022/01/19 07:06:12;;;;;;;2.60;1.00;;;;;;;;;;5029778;28;20632;-60
2022/01/19 07:08:39;;;;;;;1.10;1.10;;;;;;;;;;5029753;28;20303;-60
2022/01/19 07:11:06;;;;;;;1.17;1.07;;;;;;;;;;5029697;28;20312;-61
2022/01/19 07:13:33;;;;;;;2.13;1.20;;;;;;;;;;5029524;28;20207;-60
2022/01/19 07:16:00;;;;;;;2.97;1.40;;;;;;;;;;5029292;28;20242;-61
2022/01/19 07:18:28;;;;;;;1.17;1.17;;;;;;;;;;5029567;28;20262;-61
2022/01/19 07:20:56;;;;;;;1.23;1.17;;;;;;;;;;5029427;28;20722;-61
2022/01/19 07:23:23;;;;;;;1.30;1.30;;;;;;;;;;5029508;28;20222;-61
2022/01/19 07:25:50;;;;;;;0.90;0.90;;;;;;;;;;5029488;28;20211;-60
2022/01/19 07:28:17;;;;;;;2.03;0.90;;;;;;;;;;5029372;28;20248;-60
2022/01/19 07:30:44;;;;;;;1.47;1.07;;;;;;;;;;5029490;28;20262;-60
2022/01/19 07:33:12;;;;;;;1.57;0.93;;;;;;;;;;5029354;28;20266;-60
2022/01/19 07:35:39;;;;;;;0.93;0.93;;;;;;;;;;5029548;28;20754;-60
2022/01/19 07:38:08;;;;;;;1.00;1.00;;;;;;;;;;5029365;28;20215;-60
2022/01/19 07:40:35;;;;;;;0.80;0.80;;;;;;;;;;5028852;28;20208;-61
2022/01/19 07:43:02;;;;;;;1.93;1.10;;;;;;;;;;5029226;28;20214;-61
2022/01/19 07:45:29;;;;;;;1.03;0.90;;;;;;;;;;5029378;28;20244;-60
2022/01/19 07:47:57;;;;;;;2.30;1.40;;;;;;;;;;5033252;28;20214;-60
2022/01/19 07:50:24;;;;;;;6.37;1.23;;;;;;;;;;5033279;28;20270;-61
2022/01/19 07:52:51;;;;;;;1.23;0.90;;;;;;;;;;5033260;28;20212;-61
2022/01/19 07:55:19;;;;;;;1.17;0.83;;;;;;;;;;5033142;28;20222;-61
2022/01/19 07:57:50;;;;;;;1.00;1.00;;;;;;;;;;5033108;28;20245;-60
2022/01/19 08:00:18;;;;;;;0.80;0.80;;;;;;;;;;5033028;28;20213;-61
2022/01/19 08:02:45;;;;;;;1.20;1.10;;;;;;;;;;5032829;28;20207;-61
2022/01/19 08:05:12;;;;;;;0.87;0.87;;;;;;;;;;5033099;28;20209;-61
2022/01/19 08:07:39;;;;;;;1.27;1.20;;;;;;;;;;5032876;28;20208;-61
2022/01/19 08:10:07;;;;;;;0.93;0.90;;;;;;;;;;5032885;28;20217;-61
2022/01/19 08:12:36;;;;;;;1.00;0.70;;;;;;;;;;5032775;28;20632;-61
2022/01/19 08:15:03;;;;;;;1.00;1.00;;;;;;;;;;5032644;28;20230;-65
2022/01/19 08:17:30;;;;;;;1.17;1.13;;;;;;;;;;5032596;28;20240;-61
2022/01/19 08:19:57;;;;;;;1.10;1.10;;;;;;;;;;5032496;28;20213;-60
2022/01/19 08:22:25;;;;;;;0.80;0.80;;;;;;;;;;5032782;28;20277;-60
2022/01/19 08:24:52;;;;;;;1.80;1.70;;;;;;;;;;5032726;28;20213;-61
2022/01/19 08:27:19;;;;;;;1.00;0.73;;;;;;;;;;5032520;28;20215;-60
2022/01/19 08:29:48;;;;;;;2.73;2.00;;;;;;;;;;5032597;28;20215;-60
2022/01/19 08:32:15;;;;;;;7.93;2.23;;;;;;;;;;5032411;28;20216;-61
2022/01/19 08:34:42;;;;;;;2.00;1.90;;;;;;;;;;5032138;28;20252;-60
2022/01/19 08:37:14;;;;;;;4.50;2.67;;;;;;;;;;5012676;28;20242;-60
2022/01/19 08:39:41;;;;;;;2.30;1.97;;;;;;;;;;5012910;28;20299;-61
2022/01/19 08:42:09;;;;;;;2.53;2.33;;;;;;;;;;5012665;28;20225;-61
2022/01/19 08:44:36;;;;;;;2.73;2.40;;;;;;;;;;5012472;28;20218;-59
2022/01/19 08:47:04;;;;;;;3.17;2.17;;;;;;;;;;5012332;28;20618;-60
2022/01/19 08:49:32;;;;;;;9.37;2.63;;;;;;;;;;5012301;28;20211;-60
2022/01/19 08:51:59;;;;;;;2.30;2.20;;;;;;;;;;5012553;28;20249;-60
2022/01/19 08:54:26;;;;;;;4.33;2.57;;;;;;;;;;5012606;28;20208;-60
2022/01/19 08:56:54;;;;;;;3.13;2.30;;;;;;;;;;5013061;28;20235;-60
2022/01/19 08:59:21;;;;;;;2.93;2.53;;;;;;;;;;5032059;28;20215;-60
2022/01/19 09:01:48;;;;;;;3.20;2.63;;;;;;;;;;5031718;28;20214;-60
2022/01/19 09:04:17;;;;;;;2.40;2.20;;;;;;;;;;5031239;28;20265;-61
2022/01/19 09:06:44;;;;;;;2.97;2.77;;;;;;;;;;5031433;28;20710;-61
2022/01/19 09:09:12;;;;;;;5.40;2.70;;;;;;;;;;5031384;28;20218;-60
2022/01/19 09:11:39;;;;;;;5.20;2.93;;;;;;;;;;5031228;28;20223;-60
2022/01/19 09:14:07;;;;;;;3.87;2.73;;;;;;;;;;5030944;28;20745;-59
2022/01/19 09:16:35;;;;;;;3.97;3.00;;;;;;;;;;5030960;28;20797;-61
2022/01/19 09:19:02;;;;;;;2.83;2.57;;;;;;;;;;5031052;28;20212;-60
2022/01/19 09:21:30;;;;;;;5.17;3.10;;;;;;;;;;5031127;28;20216;-62
2022/01/19 09:23:57;;;;;;;4.10;3.07;;;;;;;;;;5031118;28;20281;-60
2022/01/19 09:26:24;;;;;;;5.03;2.90;;;;;;;;;;5030651;28;20200;-60
2022/01/19 09:28:51;;;;;;;3.10;2.57;;;;;;;;;;5028068;28;20675;-59
2022/01/19 09:31:19;;;;;;;5.90;3.50;;;;;;;;;;5030440;28;20219;-60
2022/01/19 09:33:54;;;;;;;8.03;3.57;;;;;;;;;;5030417;28;20240;-60
2022/01/19 09:36:31;;;;;;;3.97;2.47;;;;;;;;;;5030376;28;20701;-61
2022/01/19 09:39:00;;;;;;;8.37;2.90;;;;;;;;;;5031463;28;20225;-61
2022/01/19 09:41:28;;;;;;;3.97;3.17;;;;;;;;;;5031146;28;20773;-61
2022/01/19 09:43:55;;;;;;;3.43;3.13;;;;;;;;;;5031148;28;20210;-61
2022/01/19 09:46:22;;;;;;;5.70;3.10;;;;;;;;;;5030967;28;20233;-61
2022/01/19 09:48:49;;;;;;;7.23;3.63;;;;;;;;;;5031125;28;20216;-61
2022/01/19 09:51:17;;;;;;;3.50;3.20;;;;;;;;;;5030939;28;20730;-61
2022/01/19 09:53:44;;;;;;;4.70;3.23;;;;;;;;;;5030901;28;20224;-61
2022/01/19 09:56:12;;;;;;;9.03;3.83;;;;;;;;;;5031339;28;20212;-61
2022/01/19 09:58:39;;;;;;;6.73;3.40;;;;;;;;;;5028813;28;20281;-61
2022/01/19 10:01:06;;;;;;;8.13;3.60;;;;;;;;;;5030510;28;20219;-61
2022/01/19 10:03:34;;;;;;;4.00;3.40;;;;;;;;;;5029119;28;20816;-61
2022/01/19 10:06:03;;;;;;;6.33;3.97;;;;;;;;;;5029750;28;20212;-60
2022/01/19 10:08:37;;;;;;;4.23;2.90;;;;;;;;;;5028750;28;20250;-60
2022/01/19 10:11:18;;;;;;;3.83;3.13;;;;;;;;;;5029052;28;20216;-60
2022/01/19 10:19:19;;;;;;;7.33;4.27;;;;;;;;;;5019203;28;20211;-60
2022/01/19 10:21:59;;;;;;;3.40;2.97;;;;;;;;;;5029461;28;20322;-60
2022/01/19 10:24:39;;;;;;;4.07;3.17;;;;;;;;;;5029161;28;20851;-60
2022/01/19 10:27:25;;;;;;;5.80;3.63;;;;;;;;;;5029039;28;20217;-60
2022/01/19 10:29:52;;;;;;;3.93;3.03;;;;;;;;;;5029337;28;20268;-60
2022/01/19 10:32:21;;;;;;;4.13;3.63;;;;;;;;;;5028911;28;20207;-60
2022/01/19 10:34:48;;;;;;;3.93;3.53;;;;;;;;;;5029165;28;20343;-60
2022/01/19 10:37:15;;;;;;;4.30;3.43;;;;;;;;;;5029101;28;20689;-61
2022/01/19 10:39:45;;;;;;;6.77;3.43;;;;;;;;;;5029254;28;20204;-59
2022/01/19 10:42:15;;;;;;;6.73;3.87;;;;;;;;;;5029239;28;20222;-60
2022/01/19 10:44:45;;;;;;;3.00;2.50;;;;;;;;;;5029203;28;20661;-61
2022/01/19 10:47:12;;;;;;;5.10;3.40;;;;;;;;;;5029065;28;20233;-61
2022/01/19 10:49:57;;;;;;;3.70;2.90;;;;;;;;;;5029502;28;20209;-61
2022/01/19 10:52:28;;;;;;;7.23;3.27;;;;;;;;;;5029785;28;20226;-60
2022/01/19 10:54:57;;;;;;;3.73;3.20;;;;;;;;;;5029758;28;20273;-60
2022/01/19 10:57:24;;;;;;;4.83;3.37;;;;;;;;;;5029445;28;20235;-61
2022/01/19 10:59:53;;;;;;;4.10;3.43;;;;;;;;;;5029489;28;20255;-60
2022/01/19 11:02:22;;;;;;;4.90;3.30;;;;;;;;;;5028660;28;20682;-61
2022/01/19 11:04:49;;;;;;;4.03;3.57;;;;;;;;;;5029393;28;20215;-61
2022/01/19 11:07:19;;;;;;;4.53;2.70;;;;;;;;;;5029547;28;20630;-61
2022/01/19 11:09:56;;;;;;;4.67;2.97;;;;;;;;;;5029663;28;20217;-61
2022/01/19 11:12:27;;;;;;;2.73;2.53;;;;;;;;;;5029306;28;20215;-60
2022/01/19 11:14:55;;;;;;;10.63;2.83;;;;;;;;;;5029282;28;20219;-61
2022/01/19 11:17:22;;;;;;;4.83;3.37;;;;;;;;;;5028464;28;20234;-61
2022/01/19 11:19:50;;;;;;;11.20;3.63;;;;;;;;;;5029057;28;20216;-60
2022/01/19 11:22:23;;;;;;;5.07;3.60;;;;;;;;;;5028309;28;20233;-59
2022/01/19 11:24:56;;;;;;;4.80;3.40;;;;;;;;;;5028928;28;20210;-60
2022/01/19 11:27:28;;;;;;;4.03;3.10;;;;;;;;;;5029084;28;20207;-60
2022/01/19 11:30:17;;;;;;;6.20;3.80;;;;;;;;;;5029145;28;20203;-61
2022/01/19 11:32:45;;;;;;;3.47;3.17;;;;;;;;;;5029408;28;20213;-61
2022/01/19 11:35:27;;;;;;;7.07;3.73;;;;;;;;;;5013443;28;20249;-60
2022/01/19 11:37:54;;;;;;;6.77;3.17;;;;;;;;;;5026423;28;20637;-61
2022/01/19 11:40:23;;;;;;;3.13;2.47;;;;;;;;;;5029052;28;20207;-59
2022/01/19 11:42:50;;;;;;;4.27;3.27;;;;;;;;;;5029099;28;20219;-59
2022/01/19 11:45:32;;;;;;;4.00;3.13;;;;;;;;;;5028706;28;20339;-59
2022/01/19 11:48:15;;;;;;;3.87;3.20;;;;;;;;;;5028911;28;20217;-62
2022/01/19 11:50:42;;;;;;;7.17;3.73;;;;;;;;;;5028790;28;20229;-59
2022/01/19 11:53:11;;;;;;;5.77;3.43;;;;;;;;;;5027136;28;20254;-59
2022/01/19 11:55:38;;;;;;;10.43;4.07;;;;;;;;;;5022594;28;20212;-60
2022/01/19 11:58:13;;;;;;;5.80;4.07;;;;;;;;;;5028937;28;20235;-61
2022/01/19 12:00:40;;;;;;;5.73;3.97;;;;;;;;;;5029181;28;20203;-60
2022/01/19 12:03:18;;;;;;;14.38;7.28;;;;;;;;;;5028050;28;20464;-66
2022/01/19 12:05:45;;;;;;;15.40;5.60;;;;;;;;;;5027209;28;20465;-59
2022/01/19 12:08:27;;;;;;;8.07;3.83;;;;;;;;;;5020552;28;20216;-58
2022/01/19 12:10:57;;;;;;;12.17;5.20;;;;;;;;;;5029013;28;20288;-60
2022/01/19 12:13:33;;;;;;;8.47;5.10;;;;;;;;;;5028352;28;20749;-60
2022/01/19 12:16:05;;;;;;;7.00;4.50;;;;;;;;;;5028208;28;20204;-60
2022/01/19 12:18:40;;;;;;;4.90;3.80;;;;;;;;;;5028898;28;20228;-63
2022/01/19 12:21:08;;;;;;;10.80;4.97;;;;;;;;;;5022425;28;20208;-59
2022/01/19 12:23:36;;;;;;;9.57;4.97;;;;;;;;;;5028539;28;20976;-60
2022/01/19 12:26:04;;;;;;;9.10;4.63;;;;;;;;;;5028914;28;20227;-59
2022/01/19 12:28:41;;;;;;;9.60;4.30;;;;;;;;;;5028944;28;20758;-60
2022/01/19 12:31:27;;;;;;;7.00;4.20;;;;;;;;;;5028396;28;20273;-60
2022/01/19 12:34:19;;;;;;;11.43;4.53;;;;;;;;;;5030815;28;20239;-59
2022/01/19 12:36:49;;;;;;;6.47;4.20;;;;;;;;;;5012906;28;20208;-59
2022/01/19 12:39:35;;;;;;;11.93;5.20;;;;;;;;;;5032174;28;20259;-59
2022/01/19 12:42:02;;;;;;;5.50;3.33;;;;;;;;;;5031374;28;20209;-59
2022/01/19 12:44:40;;;;;;;4.97;3.67;;;;;;;;;;5032246;28;20223;-60
2022/01/19 12:47:27;;;;;;;7.57;3.47;;;;;;;;;;5031924;28;20286;-60
2022/01/19 12:49:54;;;;;;;6.37;4.03;;;;;;;;;;5031540;28;20235;-60
2022/01/19 12:52:23;;;;;;;7.70;3.90;;;;;;;;;;5032075;28;20274;-59
2022/01/19 12:54:51;;;;;;;5.33;3.70;;;;;;;;;;5031126;28;20215;-59
2022/01/19 12:57:18;;;;;;;6.20;3.60;;;;;;;;;;5031954;28;20211;-60
2022/01/19 12:59:46;;;;;;;9.50;4.13;;;;;;;;;;5026810;28;20278;-59
2022/01/19 13:02:14;;;;;;;4.93;3.33;;;;;;;;;;5028566;28;20731;-59
2022/01/19 13:04:42;;;;;;;5.50;3.33;;;;;;;;;;5032223;28;20212;-59
2022/01/19 13:07:17;;;;;;;6.97;3.80;;;;;;;;;;5031138;28;20273;-59
2022/01/19 13:10:04;;;;;;;9.70;4.13;;;;;;;;;;5027473;28;20209;-59
2022/01/19 13:12:39;;;;;;;5.63;3.50;;;;;;;;;;5032109;28;20223;-59
2022/01/19 13:15:07;;;;;;;5.00;3.13;;;;;;;;;;5032027;28;20254;-61
2022/01/19 13:17:40;;;;;;;4.83;2.93;;;;;;;;;;5031869;28;20239;-60
2022/01/19 13:20:09;;;;;;;4.77;2.57;;;;;;;;;;5031815;28;20291;-60
2022/01/19 13:22:43;;;;;;;5.37;3.80;;;;;;;;;;5031046;28;20932;-60
2022/01/19 13:25:16;;;;;;;8.17;3.77;;;;;;;;;;5031713;28;20567;-60
2022/01/19 13:27:44;;;;;;;6.63;4.17;;;;;;;;;;5031917;28;20208;-61
2022/01/19 13:30:12;;;;;;;4.97;3.00;;;;;;;;;;5031533;28;20220;-60
2022/01/19 13:32:40;;;;;;;4.87;3.87;;;;;;;;;;5031411;28;20206;-60
2022/01/19 13:35:08;;;;;;;5.03;3.37;;;;;;;;;;5030653;28;20233;-60
2022/01/19 13:37:37;;;;;;;3.80;2.67;;;;;;;;;;5031067;28;20208;-60
2022/01/19 13:40:07;;;;;;;4.17;2.87;;;;;;;;;;5031468;28;20220;-60
2022/01/19 13:42:41;;;;;;;6.00;3.67;;;;;;;;;;5031327;28;20209;-60
2022/01/19 13:45:13;;;;;;;6.17;3.97;;;;;;;;;;5031285;28;20211;-61
2022/01/19 13:47:53;;;;;;;5.77;2.83;;;;;;;;;;5031113;28;20266;-60
2022/01/19 13:50:21;;;;;;;6.50;3.50;;;;;;;;;;5031330;28;20234;-62
2022/01/19 13:52:48;;;;;;;3.53;2.53;;;;;;;;;;5031218;28;20221;-60
2022/01/19 13:55:19;;;;;;;6.27;3.37;;;;;;;;;;5031160;28;20213;-60
2022/01/19 13:57:48;;;;;;;5.47;3.17;;;;;;;;;;5030822;28;20218;-60
2022/01/19 14:00:16;;;;;;;5.83;3.07;;;;;;;;;;5030290;28;20568;-60
2022/01/19 14:02:56;;;;;;;6.87;3.27;;;;;;;;;;5021651;28;20889;-60
2022/01/19 14:05:35;;;;;;;4.63;3.23;;;;;;;;;;5021916;28;20235;-60
2022/01/19 14:08:02;;;;;;;5.73;3.03;;;;;;;;;;5025500;28;20592;-61
2022/01/19 14:10:39;;;;;;;6.07;3.00;;;;;;;;;;5025836;28;20302;-60
2022/01/19 14:13:21;;;;;;;4.43;2.67;;;;;;;;;;5025892;28;20800;-60
2022/01/19 14:15:49;;;;;;;4.77;3.10;;;;;;;;;;5019770;28;20645;-61
2022/01/19 14:18:16;;;;;;;7.87;3.57;;;;;;;;;;5025210;28;20281;-60
2022/01/19 14:20:43;;;;;;;4.03;2.93;;;;;;;;;;5025893;28;20228;-61
2022/01/19 14:23:14;;;;;;;3.93;3.07;;;;;;;;;;5026039;28;20219;-61
2022/01/19 14:25:41;;;;;;;4.03;2.57;;;;;;;;;;5025788;28;20685;-61
2022/01/19 14:28:14;;;;;;;4.97;2.77;;;;;;;;;;5025012;28;20207;-60
2022/01/19 14:30:41;;;;;;;4.17;2.73;;;;;;;;;;5025935;28;20830;-62
2022/01/19 14:33:11;;;;;;;6.70;2.90;;;;;;;;;;5025055;28;20285;-62
2022/01/19 14:35:39;;;;;;;3.77;2.73;;;;;;;;;;5025913;28;20213;-61
2022/01/19 14:38:12;;;;;;;5.10;2.90;;;;;;;;;;5025305;28;20248;-61
2022/01/19 14:40:51;;;;;;;4.30;2.77;;;;;;;;;;5022746;28;20892;-62
2022/01/19 14:43:21;;;;;;;2.70;2.47;;;;;;;;;;5024039;28;20204;-61
2022/01/19 14:45:52;;;;;;;6.27;3.07;;;;;;;;;;5010511;28;20214;-60
2022/01/19 14:48:21;;;;;;;5.00;2.93;;;;;;;;;;5025087;28;20243;-61
2022/01/19 14:50:49;;;;;;;3.37;2.40;;;;;;;;;;5024935;28;20228;-61
2022/01/19 14:53:16;;;;;;;3.33;2.40;;;;;;;;;;5024265;28;20586;-61
2022/01/19 14:55:44;;;;;;;5.50;3.10;;;;;;;;;;5023236;28;20219;-61
2022/01/19 14:58:12;;;;;;;3.00;2.73;;;;;;;;;;5018943;28;20228;-61
2022/01/19 15:00:40;;;;;;;3.87;2.80;;;;;;;;;;5024274;28;20288;-61
2022/01/19 15:03:07;;;;;;;5.50;2.87;;;;;;;;;;5024083;28;20212;-61
2022/01/19 15:05:37;;;;;;;7.97;4.07;;;;;;;;;;5024158;28;20281;-61
2022/01/19 15:08:05;;;;;;;3.80;2.87;;;;;;;;;;5022603;28;20212;-61
2022/01/19 15:10:33;;;;;;;4.73;3.47;;;;;;;;;;5020627;28;20216;-61
2022/01/19 15:13:00;;;;;;;2.83;1.90;;;;;;;;;;5022959;28;20266;-61
2022/01/19 15:15:29;;;;;;;4.73;3.30;;;;;;;;;;5024586;28;20831;-61
2022/01/19 15:17:57;;;;;;;6.20;3.63;;;;;;;;;;5023124;28;20669;-61
2022/01/19 15:20:25;;;;;;;6.53;3.47;;;;;;;;;;5024424;28;20208;-61
2022/01/19 15:22:59;;;;;;;3.27;2.87;;;;;;;;;;5023959;28;20211;-61
2022/01/19 15:25:26;;;;;;;4.37;2.80;;;;;;;;;;5019901;28;20302;-61
2022/01/19 15:27:54;;;;;;;5.53;3.13;;;;;;;;;;5023954;28;20208;-61
2022/01/19 15:30:21;;;;;;;8.33;3.97;;;;;;;;;;5024372;28;20219;-60
2022/01/19 15:32:48;;;;;;;6.10;3.63;;;;;;;;;;5021038;28;20218;-60
2022/01/19 15:35:17;;;;;;;5.57;4.30;;;;;;;;;;5019952;28;20664;-61
2022/01/19 15:37:44;;;;;;;6.67;3.70;;;;;;;;;;5023782;28;20208;-61
2022/01/19 15:40:13;;;;;;;5.27;3.37;;;;;;;;;;5020666;28;20323;-61
2022/01/19 15:42:41;;;;;;;5.37;3.23;;;;;;;;;;5023254;28;20216;-61
2022/01/19 15:45:08;;;;;;;6.07;3.90;;;;;;;;;;5021754;28;20212;-61
2022/01/19 15:47:35;;;;;;;7.77;3.47;;;;;;;;;;5022632;28;20218;-60
2022/01/19 15:50:03;;;;;;;7.90;4.80;;;;;;;;;;5023436;28;20229;-60
2022/01/19 15:52:30;;;;;;;6.23;3.80;;;;;;;;;;5024576;28;20213;-60
2022/01/19 15:54:57;;;;;;;5.73;3.77;;;;;;;;;;5022205;28;20937;-60
2022/01/19 15:57:25;;;;;;;10.17;4.60;;;;;;;;;;5024289;28;20218;-61
2022/01/19 15:59:53;;;;;;;7.10;3.73;;;;;;;;;;5024466;28;20243;-61
2022/01/19 16:02:20;;;;;;;8.33;4.17;;;;;;;;;;5023885;28;20294;-61
2022/01/19 16:04:47;;;;;;;5.37;3.30;;;;;;;;;;5022782;28;20729;-61
2022/01/19 16:07:14;;;;;;;7.23;3.80;;;;;;;;;;5017287;28;20211;-63
2022/01/19 16:09:41;;;;;;;3.87;2.37;;;;;;;;;;5028562;28;20587;-61